Time;durP1;ratioP1;P1;durP2;ratioP2;P2;SDS_P1;SDS_P2;PMS_P1;PMS_P2;Temp;Humidity;BMP_temperature;BMP_pressure;BME280_temperature;BME280_humidity;BME280_pressure;Samples;Min_cycle;Max_cycle;Signal;HPM_P1;HPM_P2
2022/04/30 00:02:15;;;;;;;15.13;6.85;;;7.80;99.90;;;;;;5054026;28;20021;-62
2022/04/30 00:04:42;;;;;;;14.73;4.95;;;7.80;99.90;;;;;;5054274;28;20025;-62
2022/04/30 00:07:08;;;;;;;13.48;5.00;;;7.90;99.90;;;;;;5054137;28;20044;-61
2022/04/30 00:09:36;;;;;;;13.85;5.38;;;7.90;99.90;;;;;;5054463;28;20059;-61
2022/04/30 00:12:02;;;;;;;14.27;5.75;;;8.00;99.90;;;;;;5054652;28;20531;-61
2022/04/30 00:14:29;;;;;;;11.98;5.85;;;8.00;99.90;;;;;;5052608;28;20029;-62
2022/04/30 00:16:55;;;;;;;14.35;5.85;;;8.00;99.90;;;;;;5053086;28;20502;-62
2022/04/30 00:19:22;;;;;;;13.77;6.13;;;8.00;99.90;;;;;;5053703;28;20045;-62
2022/04/30 00:21:48;;;;;;;12.65;5.10;;;8.00;99.90;;;;;;5052601;28;20052;-62
2022/04/30 00:24:14;;;;;;;13.90;6.85;;;8.00;99.90;;;;;;5053078;28;20025;-61
2022/04/30 00:26:39;;;;;;;16.70;6.65;;;8.10;99.90;;;;;;5052879;28;20032;-63
2022/04/30 00:29:07;;;;;;;10.63;5.15;;;8.10;99.90;;;;;;5052583;28;20477;-63
2022/04/30 00:31:34;;;;;;;11.93;5.15;;;8.10;99.90;;;;;;5052846;28;20017;-66
2022/04/30 00:34:01;;;;;;;22.15;7.05;;;8.10;99.90;;;;;;5052680;28;20025;-62
2022/04/30 00:36:26;;;;;;;14.85;5.95;;;8.00;99.90;;;;;;5053246;28;20029;-61
2022/04/30 00:38:52;;;;;;;13.82;5.85;;;8.00;99.90;;;;;;5052724;28;20441;-61
2022/04/30 00:41:19;;;;;;;13.43;5.55;;;7.90;99.90;;;;;;5052645;28;20021;-62
2022/04/30 00:43:48;;;;;;;14.75;5.57;;;7.90;99.90;;;;;;5050695;28;20067;-62
2022/04/30 00:46:15;;;;;;;8.63;4.47;;;7.90;99.90;;;;;;5051523;28;20017;-63
2022/04/30 00:48:41;;;;;;;12.75;5.43;;;7.80;99.90;;;;;;5052894;28;20100;-61
2022/04/30 00:51:12;;;;;;;12.15;5.88;;;7.80;99.90;;;;;;5051620;28;20039;-63
2022/04/30 00:53:39;;;;;;;11.10;4.68;;;7.70;99.90;;;;;;5051170;28;20036;-63
2022/04/30 00:56:09;;;;;;;14.85;5.85;;;7.70;99.90;;;;;;5052889;28;20025;-64
2022/04/30 00:58:40;;;;;;;15.07;6.00;;;7.70;99.90;;;;;;5053443;28;20024;-61
2022/04/30 01:01:06;;;;;;;12.25;5.53;;;7.60;99.90;;;;;;5053620;28;20021;-61
2022/04/30 01:03:32;;;;;;;9.65;4.93;;;7.60;99.90;;;;;;5053522;28;20024;-65
2022/04/30 01:05:59;;;;;;;11.63;5.10;;;7.60;99.90;;;;;;5052830;28;20037;-65
2022/04/30 01:08:28;;;;;;;10.68;4.90;;;7.60;99.90;;;;;;5052810;28;20025;-62
2022/04/30 01:10:55;;;;;;;11.80;5.22;;;7.50;99.90;;;;;;5052393;28;20021;-65
2022/04/30 01:13:21;;;;;;;13.82;5.85;;;7.50;99.90;;;;;;5054213;28;20152;-64
2022/04/30 01:15:47;;;;;;;11.23;5.30;;;7.50;99.90;;;;;;5060429;28;20095;-64
2022/04/30 01:18:13;;;;;;;14.05;5.72;;;7.50;99.90;;;;;;5057135;28;20031;-65
2022/04/30 01:20:46;;;;;;;13.57;5.57;;;7.50;99.90;;;;;;5051294;28;20108;-65
2022/04/30 01:23:14;;;;;;;15.18;6.07;;;7.50;99.90;;;;;;5052085;28;20485;-65
2022/04/30 01:25:44;;;;;;;12.88;6.18;;;7.40;99.90;;;;;;5051563;28;20103;-62
2022/04/30 01:28:11;;;;;;;12.57;5.80;;;7.50;99.90;;;;;;5052090;28;20048;-65
2022/04/30 01:30:37;;;;;;;11.25;5.20;;;7.50;99.90;;;;;;5052526;28;20032;-64
2022/04/30 01:38:32;;;;;;;8.93;4.80;;;7.80;99.90;;;;;;5051985;28;20062;-63
2022/04/30 01:40:57;;;;;;;13.30;5.22;;;7.90;99.90;;;;;;5051657;28;20021;-65
2022/04/30 01:43:24;;;;;;;9.20;4.82;;;8.00;99.90;;;;;;5051696;28;20476;-64
2022/04/30 01:45:50;;;;;;;11.88;5.40;;;8.10;99.90;;;;;;5051790;28;20096;-62
2022/04/30 01:48:16;;;;;;;11.35;4.70;;;8.30;99.90;;;;;;5058084;28;20535;-64
2022/04/30 01:50:42;;;;;;;11.80;4.88;;;8.40;99.90;;;;;;5059003;28;20060;-61
2022/04/30 01:53:09;;;;;;;9.65;4.40;;;8.50;99.90;;;;;;5062967;28;20306;-61
2022/04/30 01:55:34;;;;;;;12.15;5.25;;;8.60;99.90;;;;;;5055923;28;20025;-64
2022/04/30 01:58:00;;;;;;;8.75;4.40;;;8.60;99.90;;;;;;5063667;28;20036;-62
2022/04/30 02:00:26;;;;;;;11.40;4.72;;;8.70;99.90;;;;;;5055001;28;20033;-64
2022/04/30 02:02:54;;;;;;;9.95;4.55;;;8.80;99.90;;;;;;5060483;28;20028;-62
2022/04/30 02:05:20;;;;;;;8.48;4.70;;;8.80;99.90;;;;;;5058678;28;20078;-64
2022/04/30 02:07:49;;;;;;;12.05;4.65;;;8.90;99.90;;;;;;5060669;28;20060;-62
2022/04/30 02:10:15;;;;;;;10.13;5.00;;;9.00;99.90;;;;;;5062141;28;20040;-67
2022/04/30 02:12:42;;;;;;;12.23;5.15;;;9.10;99.90;;;;;;5053964;28;20063;-64
2022/04/30 02:15:08;;;;;;;11.23;4.70;;;9.10;99.90;;;;;;5054048;28;20116;-61
2022/04/30 02:17:38;;;;;;;13.40;4.45;;;9.10;99.90;;;;;;5057744;28;20040;-61
2022/04/30 02:20:18;;;;;;;9.00;4.43;;;9.20;99.90;;;;;;5063805;28;20020;-64
2022/04/30 02:22:45;;;;;;;7.60;3.85;;;9.20;99.90;;;;;;5060701;28;20024;-63
2022/04/30 02:25:12;;;;;;;9.85;4.28;;;9.30;99.90;;;;;;5051489;28;20016;-62
2022/04/30 02:27:55;;;;;;;9.57;3.90;;;9.30;99.90;;;;;;5051645;28;20060;-62
2022/04/30 02:30:22;;;;;;;9.57;4.18;;;9.30;99.90;;;;;;5049206;28;20025;-61
2022/04/30 02:33:03;;;;;;;6.47;3.90;;;9.30;99.90;;;;;;5031922;28;20091;-62
2022/04/30 02:35:30;;;;;;;10.75;4.45;;;9.30;99.90;;;;;;5040444;28;20021;-61
2022/04/30 02:37:59;;;;;;;11.40;4.25;;;9.40;99.90;;;;;;5054740;28;20013;-61
2022/04/30 02:40:25;;;;;;;8.55;3.70;;;9.40;99.90;;;;;;5053453;28;20021;-64
2022/04/30 02:42:52;;;;;;;5.90;3.25;;;9.40;99.90;;;;;;5055525;28;20029;-62
2022/04/30 02:45:19;;;;;;;9.63;4.18;;;9.40;99.90;;;;;;5055801;28;20032;-65
2022/04/30 02:47:53;;;;;;;5.95;3.20;;;9.40;99.90;;;;;;5051512;28;20032;-64
2022/04/30 02:50:20;;;;;;;8.50;4.25;;;9.40;99.90;;;;;;5047451;28;20025;-64
2022/04/30 02:52:46;;;;;;;7.50;3.83;;;9.40;99.90;;;;;;5055804;28;20032;-63
2022/04/30 02:55:12;;;;;;;9.38;4.50;;;9.40;99.90;;;;;;5056087;28;20037;-64
2022/04/30 03:00:40;;;;;;;9.02;4.18;;;9.50;99.90;;;;;;5075691;28;20108;-64
2022/04/30 03:03:13;;;;;;;8.70;3.50;;;9.50;99.90;;;;;;5075600;28;20024;-60
2022/04/30 03:05:41;;;;;;;9.73;4.40;;;9.50;99.90;;;;;;5075852;28;20085;-66
2022/04/30 03:08:12;;;;;;;8.90;3.95;;;9.50;99.90;;;;;;5075072;28;20028;-64
2022/04/30 03:10:42;;;;;;;6.68;4.30;;;9.60;99.90;;;;;;5075803;28;20044;-65
2022/04/30 03:13:07;;;;;;;9.80;4.57;;;9.60;99.90;;;;;;5075227;28;20044;-62
2022/04/30 03:15:40;;;;;;;8.70;4.38;;;9.60;99.90;;;;;;5075461;28;20047;-63
2022/04/30 03:23:36;;;;;;;11.68;4.82;;;9.70;99.90;;;;;;5075441;28;20036;-62
2022/04/30 03:26:06;;;;;;;10.70;5.00;;;9.80;99.90;;;;;;5075169;28;20105;-63
2022/04/30 03:28:32;;;;;;;12.02;4.65;;;9.80;99.90;;;;;;5075082;28;20048;-61
2022/04/30 03:30:58;;;;;;;8.63;4.38;;;9.80;99.90;;;;;;5074631;28;20445;-63
2022/04/30 03:33:26;;;;;;;13.68;4.95;;;9.80;99.90;;;;;;5075255;28;20020;-65
2022/04/30 03:35:52;;;;;;;9.55;4.50;;;9.80;99.90;;;;;;5057028;28;20044;-61
2022/04/30 03:38:17;;;;;;;7.10;4.30;;;9.80;99.90;;;;;;5054818;28;20025;-61
2022/04/30 03:40:43;;;;;;;11.60;4.75;;;9.80;99.90;;;;;;5054947;28;20020;-61
2022/04/30 03:43:08;;;;;;;8.88;4.53;;;9.80;99.90;;;;;;5055056;28;20411;-62
2022/04/30 03:45:35;;;;;;;7.65;4.45;;;9.70;99.90;;;;;;5054915;28;20028;-61
2022/04/30 03:48:00;;;;;;;10.65;5.10;;;9.80;99.90;;;;;;5054484;28;20040;-61
2022/04/30 03:50:26;;;;;;;12.35;5.07;;;9.80;99.90;;;;;;5055190;28;20028;-63
2022/04/30 03:52:52;;;;;;;10.90;4.28;;;9.80;99.90;;;;;;5054853;28;20021;-63
2022/04/30 03:55:17;;;;;;;11.55;4.30;;;9.70;99.90;;;;;;5054489;28;20029;-64
2022/04/30 03:57:43;;;;;;;13.23;4.95;;;9.80;99.90;;;;;;5054575;28;20417;-63
2022/04/30 04:00:12;;;;;;;12.35;5.43;;;9.80;99.90;;;;;;5054595;28;20369;-65
2022/04/30 04:02:40;;;;;;;8.75;5.07;;;9.80;99.90;;;;;;5054607;28;20021;-65
2022/04/30 04:05:13;;;;;;;8.68;4.78;;;9.90;99.90;;;;;;5054739;28;20063;-66
2022/04/30 04:07:43;;;;;;;11.40;4.97;;;9.90;99.90;;;;;;5054291;28;20073;-65
2022/04/30 04:10:09;;;;;;;9.52;4.32;;;9.90;99.90;;;;;;5054498;28;20527;-61
2022/04/30 04:12:36;;;;;;;8.82;4.75;;;10.00;99.90;;;;;;5054236;28;20021;-63
2022/04/30 04:17:48;;;;;;;9.43;4.70;;;10.10;99.90;;;;;;5054104;28;20408;-63
2022/04/30 04:20:14;;;;;;;8.80;4.72;;;10.00;99.90;;;;;;5043569;28;20026;-61
2022/04/30 04:22:40;;;;;;;12.90;4.85;;;10.10;99.90;;;;;;5034559;28;20064;-61
2022/04/30 04:27:54;;;;;;;9.73;4.60;;;10.10;99.90;;;;;;5033900;28;20055;-60
2022/04/30 04:30:23;;;;;;;14.00;4.85;;;10.10;99.90;;;;;;5034203;28;20013;-63
2022/04/30 04:32:49;;;;;;;12.15;5.05;;;10.10;99.90;;;;;;5034079;28;20521;-64
2022/04/30 04:35:15;;;;;;;11.05;4.82;;;10.10;99.90;;;;;;5060319;28;20093;-64
2022/04/30 04:37:42;;;;;;;9.88;5.38;;;10.10;99.90;;;;;;5073706;28;20025;-63
2022/04/30 04:40:09;;;;;;;10.68;4.85;;;10.20;99.90;;;;;;5073639;28;20806;-65
2022/04/30 04:42:35;;;;;;;15.93;6.25;;;10.20;99.90;;;;;;5072312;28;20017;-67
2022/04/30 04:45:01;;;;;;;10.88;5.15;;;10.20;99.90;;;;;;5073657;28;20017;-65
2022/04/30 04:47:28;;;;;;;10.60;5.07;;;10.30;99.90;;;;;;5073622;28;20070;-64
2022/04/30 04:49:54;;;;;;;9.70;4.65;;;10.30;99.90;;;;;;5073458;28;20060;-62
2022/04/30 04:52:19;;;;;;;14.32;4.88;;;10.30;99.90;;;;;;5072070;28;20052;-64
2022/04/30 04:54:45;;;;;;;9.45;4.50;;;10.30;99.90;;;;;;5073488;28;20017;-63
2022/04/30 04:57:11;;;;;;;11.30;4.80;;;10.40;99.90;;;;;;5073297;28;20032;-64
2022/04/30 04:59:36;;;;;;;12.38;5.15;;;10.40;99.90;;;;;;5072435;28;20494;-63
2022/04/30 05:02:03;;;;;;;15.43;5.85;;;10.40;99.90;;;;;;5073430;28;20031;-64
2022/04/30 05:04:29;;;;;;;9.93;4.65;;;10.40;99.90;;;;;;5073216;28;20404;-64
2022/04/30 05:06:55;;;;;;;9.07;4.68;;;10.40;99.90;;;;;;5073201;28;20468;-63
2022/04/30 05:09:20;;;;;;;12.35;5.25;;;10.50;99.90;;;;;;5073452;28;20016;-65
2022/04/30 05:11:46;;;;;;;8.23;4.65;;;10.50;99.90;;;;;;5068628;28;20028;-67
2022/04/30 05:14:11;;;;;;;12.82;5.20;;;10.50;99.90;;;;;;5054942;28;20059;-65
2022/04/30 05:16:37;;;;;;;11.00;5.20;;;10.50;99.90;;;;;;5052789;28;20522;-64
2022/04/30 05:19:05;;;;;;;14.57;6.60;;;10.50;99.90;;;;;;5053114;28;20059;-63
2022/04/30 05:21:31;;;;;;;12.13;5.53;;;10.60;99.90;;;;;;5052631;28;20360;-63
2022/04/30 05:23:57;;;;;;;11.25;5.28;;;10.60;99.90;;;;;;5051634;28;20021;-63
2022/04/30 05:26:23;;;;;;;10.25;5.47;;;10.60;99.90;;;;;;5052602;28;20095;-62
2022/04/30 05:28:48;;;;;;;11.25;5.65;;;10.70;99.90;;;;;;5053068;28;20060;-61
2022/04/30 05:31:14;;;;;;;11.55;5.30;;;10.70;99.90;;;;;;5051699;28;20025;-61
2022/04/30 05:33:39;;;;;;;10.98;4.90;;;10.70;99.90;;;;;;5052859;28;20029;-61
2022/04/30 05:36:06;;;;;;;16.80;6.07;;;10.80;99.90;;;;;;5052347;28;20107;-62
2022/04/30 05:38:32;;;;;;;11.43;5.53;;;10.80;99.90;;;;;;5052822;28;20059;-62
2022/04/30 05:40:57;;;;;;;11.52;5.13;;;10.80;99.90;;;;;;5052519;28;20086;-62
2022/04/30 05:43:23;;;;;;;13.55;5.40;;;10.90;99.90;;;;;;5052545;28;20581;-62
2022/04/30 05:45:48;;;;;;;15.68;5.47;;;10.90;99.90;;;;;;5052306;28;20040;-62
2022/04/30 05:48:14;;;;;;;10.38;5.22;;;11.00;99.90;;;;;;5052476;28;20044;-62
2022/04/30 05:50:39;;;;;;;10.52;5.00;;;11.00;99.90;;;;;;5052815;28;20043;-62
2022/04/30 05:53:05;;;;;;;12.60;5.13;;;11.00;99.90;;;;;;5052352;28;20086;-62
2022/04/30 05:55:31;;;;;;;11.40;4.82;;;11.00;99.90;;;;;;5052460;28;20065;-62
2022/04/30 05:57:57;;;;;;;10.60;5.10;;;11.00;99.90;;;;;;5052106;28;20096;-63
2022/04/30 06:00:23;;;;;;;9.27;5.28;;;11.10;99.90;;;;;;5052213;28;20068;-62
2022/04/30 06:02:49;;;;;;;10.60;4.70;;;11.10;99.90;;;;;;5052581;28;20327;-63
2022/04/30 06:05:16;;;;;;;9.95;4.82;;;11.10;99.90;;;;;;5051939;28;20017;-62
2022/04/30 06:07:41;;;;;;;13.77;5.70;;;11.20;99.90;;;;;;5052520;28;20094;-62
2022/04/30 06:10:07;;;;;;;11.77;5.07;;;11.30;99.90;;;;;;5052003;28;20028;-62
2022/04/30 06:12:34;;;;;;;11.63;4.28;;;11.40;99.90;;;;;;5052043;28;20116;-61
2022/04/30 06:15:00;;;;;;;9.93;4.85;;;11.50;99.90;;;;;;5051499;28;20400;-62
2022/04/30 06:17:26;;;;;;;11.95;4.95;;;11.70;99.90;;;;;;5051941;28;20300;-62
2022/04/30 06:19:52;;;;;;;7.05;4.03;;;11.80;99.90;;;;;;5048194;28;20027;-62
2022/04/30 06:22:17;;;;;;;13.15;5.13;;;11.90;99.90;;;;;;5044721;28;20102;-62
2022/04/30 06:24:43;;;;;;;8.63;4.20;;;12.10;99.90;;;;;;5052323;28;20388;-62
2022/04/30 06:27:09;;;;;;;12.80;5.28;;;12.20;99.90;;;;;;5051979;28;20094;-62
2022/04/30 06:29:35;;;;;;;9.38;4.55;;;12.40;99.90;;;;;;5052432;28;20017;-60
2022/04/30 06:32:00;;;;;;;9.25;4.50;;;12.60;99.90;;;;;;5051828;28;20017;-62
2022/04/30 06:34:26;;;;;;;10.38;4.80;;;12.80;99.90;;;;;;5049163;28;20040;-62
2022/04/30 06:36:51;;;;;;;12.88;4.95;;;13.00;99.90;;;;;;5050733;28;20073;-62
2022/04/30 06:39:17;;;;;;;12.73;5.60;;;13.30;99.90;;;;;;5051633;28;20084;-62
2022/04/30 06:41:43;;;;;;;10.73;4.70;;;13.50;99.90;;;;;;5051342;28;20365;-61
2022/04/30 06:44:09;;;;;;;9.30;4.00;;;13.80;99.90;;;;;;5052106;28;20147;-61
2022/04/30 06:46:34;;;;;;;9.65;3.85;;;14.50;99.90;;;;;;5052521;28;20028;-62
2022/04/30 06:49:00;;;;;;;10.65;4.50;;;15.50;99.50;;;;;;5050547;28;20017;-62
2022/04/30 06:51:25;;;;;;;13.00;5.63;;;15.90;98.40;;;;;;5051049;28;20021;-61
2022/04/30 06:59:20;;;;;;;12.38;5.85;;;16.20;97.80;;;;;;5052003;28;20063;-62
2022/04/30 07:02:07;;;;;;;9.93;4.40;;;16.00;97.70;;;;;;5051769;28;20099;-62
2022/04/30 07:04:32;;;;;;;8.27;4.50;;;15.80;97.70;;;;;;5051364;28;20094;-62
2022/04/30 07:07:03;;;;;;;9.10;4.30;;;15.50;98.00;;;;;;5051567;28;20017;-63
2022/04/30 07:09:33;;;;;;;13.40;5.60;;;15.20;97.90;;;;;;5051332;28;20101;-64
2022/04/30 07:12:04;;;;;;;9.77;4.90;;;15.00;97.80;;;;;;5049901;28;20028;-64
2022/04/30 07:14:32;;;;;;;9.20;3.97;;;14.70;97.90;;;;;;5051935;28;20023;-62
2022/04/30 07:16:57;;;;;;;10.15;4.18;;;14.50;97.90;;;;;;5051818;28;20055;-65
2022/04/30 07:19:23;;;;;;;8.48;3.97;;;14.30;98.20;;;;;;5050350;28;20399;-62
2022/04/30 07:21:49;;;;;;;11.05;4.90;;;14.10;98.60;;;;;;5051342;28;20530;-62
2022/04/30 07:24:14;;;;;;;10.68;4.20;;;14.30;98.40;;;;;;5052364;28;20036;-62
2022/04/30 07:26:40;;;;;;;11.38;4.10;;;14.40;98.20;;;;;;5055297;28;20041;-63
2022/04/30 07:29:06;;;;;;;9.63;3.97;;;14.50;98.20;;;;;;5055712;28;20493;-64
2022/04/30 07:31:31;;;;;;;13.73;5.75;;;14.70;98.00;;;;;;5055553;28;20357;-63
2022/04/30 07:33:57;;;;;;;9.38;3.42;;;14.80;97.90;;;;;;5055143;28;20021;-64
2022/04/30 07:36:22;;;;;;;9.73;4.00;;;14.90;97.10;;;;;;5055168;28;20334;-65
2022/04/30 07:38:48;;;;;;;10.40;3.78;;;14.80;97.20;;;;;;5053791;28;20025;-62
2022/04/30 07:41:13;;;;;;;10.55;3.88;;;14.70;97.20;;;;;;5055023;28;20100;-62
2022/04/30 07:43:39;;;;;;;10.20;4.22;;;14.70;97.20;;;;;;5054779;28;20025;-62
2022/04/30 07:46:05;;;;;;;10.68;4.65;;;14.60;97.30;;;;;;5053658;28;20354;-62
2022/04/30 07:48:31;;;;;;;9.90;3.47;;;14.60;97.60;;;;;;5054286;28;20037;-62
2022/04/30 07:50:57;;;;;;;9.20;3.75;;;14.60;97.50;;;;;;5055019;28;20507;-62
2022/04/30 07:53:23;;;;;;;10.10;3.72;;;14.50;97.40;;;;;;5054275;28;20070;-62
2022/04/30 07:55:49;;;;;;;9.90;3.75;;;14.40;97.50;;;;;;5053359;28;20083;-61
2022/04/30 07:58:15;;;;;;;8.60;4.03;;;14.20;97.80;;;;;;5053635;28;20037;-62
2022/04/30 08:00:40;;;;;;;9.90;4.10;;;14.10;98.10;;;;;;5054810;28;20108;-62
2022/04/30 08:03:06;;;;;;;8.95;3.83;;;13.90;98.20;;;;;;5054772;28;20025;-62
2022/04/30 08:05:32;;;;;;;7.90;3.00;;;13.80;98.40;;;;;;5054226;28;20024;-62
2022/04/30 08:07:57;;;;;;;12.63;4.43;;;13.70;98.30;;;;;;5054463;28;20033;-62
2022/04/30 08:10:23;;;;;;;7.45;3.22;;;13.70;98.50;;;;;;5054301;28;20091;-65
2022/04/30 08:12:56;;;;;;;6.50;2.88;;;13.70;98.50;;;;;;5061180;28;20033;-64
2022/04/30 08:15:23;;;;;;;12.73;4.07;;;13.70;98.60;;;;;;5059421;28;20031;-65
2022/04/30 08:17:49;;;;;;;9.38;4.13;;;13.70;99.00;;;;;;5054212;28;20025;-62
2022/04/30 08:20:15;;;;;;;5.70;3.08;;;13.60;99.40;;;;;;5054558;28;20025;-62
2022/04/30 08:22:41;;;;;;;6.57;3.55;;;13.60;99.80;;;;;;5052732;28;20032;-61
2022/04/30 08:25:07;;;;;;;10.43;4.00;;;13.50;99.90;;;;;;5052926;28;20090;-62
2022/04/30 08:27:33;;;;;;;7.53;3.03;;;13.60;99.90;;;;;;5052414;28;20531;-63
2022/04/30 08:29:59;;;;;;;9.45;4.20;;;13.60;99.90;;;;;;5053221;28;20028;-62
2022/04/30 08:32:25;;;;;;;7.75;3.50;;;13.60;99.90;;;;;;5053919;28;20481;-64
2022/04/30 08:34:52;;;;;;;7.18;3.00;;;13.50;99.90;;;;;;5062411;28;20066;-62
2022/04/30 08:37:17;;;;;;;8.55;3.42;;;13.30;99.90;;;;;;5073560;28;20079;-66
2022/04/30 08:39:44;;;;;;;9.15;3.65;;;13.30;99.90;;;;;;5073939;28;20436;-63
2022/04/30 08:42:10;;;;;;;9.80;3.45;;;13.50;99.90;;;;;;5072624;28;20476;-65
2022/04/30 08:44:39;;;;;;;11.32;4.25;;;13.70;99.90;;;;;;5072509;28;20024;-66
2022/04/30 08:47:07;;;;;;;7.20;2.83;;;14.30;99.90;;;;;;5053580;28;20041;-62
2022/04/30 08:49:33;;;;;;;10.02;3.40;;;15.20;99.90;;;;;;5053638;28;20020;-63
2022/04/30 08:51:59;;;;;;;8.13;2.85;;;15.70;99.90;;;;;;5053329;28;20017;-62
2022/04/30 08:54:24;;;;;;;7.55;3.20;;;15.80;99.90;;;;;;5053754;28;20457;-62
2022/04/30 08:56:55;;;;;;;7.10;2.70;;;15.80;99.90;;;;;;5053581;28;20025;-62
2022/04/30 08:59:21;;;;;;;4.47;2.25;;;15.80;99.20;;;;;;5053595;28;20052;-65
2022/04/30 09:01:52;;;;;;;9.32;2.75;;;15.70;98.90;;;;;;5053801;28;20396;-62
2022/04/30 09:04:19;;;;;;;4.22;2.20;;;15.60;98.70;;;;;;5053024;28;20377;-62
2022/04/30 09:06:53;;;;;;;7.75;2.30;;;15.40;98.40;;;;;;5053260;28;20047;-62
2022/04/30 09:09:29;;;;;;;5.45;2.03;;;15.30;98.60;;;;;;5053187;28;20017;-62
2022/04/30 09:12:09;;;;;;;6.38;2.20;;;15.20;98.30;;;;;;5051316;28;20108;-62
2022/04/30 09:14:34;;;;;;;5.22;2.22;;;15.20;98.10;;;;;;5052491;28;20025;-62
2022/04/30 09:17:05;;;;;;;9.05;2.75;;;15.20;97.80;;;;;;5052904;28;20037;-66
2022/04/30 09:19:33;;;;;;;8.30;3.00;;;15.10;98.10;;;;;;5048490;28;20104;-63
2022/04/30 09:22:00;;;;;;;7.90;2.72;;;15.20;97.80;;;;;;5052262;28;20120;-61
2022/04/30 09:24:31;;;;;;;9.75;3.03;;;15.30;97.90;;;;;;5051043;28;20396;-65
2022/04/30 09:27:03;;;;;;;6.68;2.80;;;15.60;97.70;;;;;;5052398;28;20106;-65
2022/04/30 09:29:28;;;;;;;7.50;2.88;;;16.00;97.70;;;;;;5051492;28;20028;-65
2022/04/30 09:31:54;;;;;;;8.75;2.70;;;16.40;97.60;;;;;;5052214;28;20029;-64
2022/04/30 09:38:06;;;;;;;11.05;2.72;;;16.30;97.30;;;;;;5048981;28;20377;-64
2022/04/30 09:40:00;;;;;;;5.45;2.13;;;16.20;97.40;;;;;;5047010;28;20040;-63
2022/04/30 09:42:28;;;;;;;4.50;2.00;;;16.30;97.20;;;;;;5052590;28;20029;-64
2022/04/30 09:44:54;;;;;;;9.30;2.13;;;16.40;96.70;;;;;;5052517;28;20021;-63
2022/04/30 09:47:20;;;;;;;7.85;2.15;;;16.60;96.30;;;;;;5051893;28;20033;-61
2022/04/30 09:55:16;;;;;;;4.13;1.80;;;17.20;94.60;;;;;;5052588;28;20146;-62
2022/04/30 09:57:42;;;;;;;3.35;1.60;;;17.40;93.90;;;;;;5051957;28;20029;-63
2022/04/30 10:00:10;;;;;;;3.00;1.40;;;17.80;93.40;;;;;;5051184;28;20025;-63
2022/04/30 10:02:38;;;;;;;4.30;2.08;;;18.20;92.50;;;;;;5050921;28;20067;-62
2022/04/30 10:05:05;;;;;;;3.33;2.00;;;18.50;91.80;;;;;;5052029;28;20096;-64
2022/04/30 10:07:33;;;;;;;6.47;2.53;;;18.80;91.10;;;;;;5051510;28;20083;-62
2022/04/30 10:10:19;;;;;;;2.92;1.50;;;19.40;90.80;;;;;;5070565;28;20112;-63
2022/04/30 10:13:02;;;;;;;4.15;2.00;;;19.90;89.80;;;;;;5062101;28;20024;-66
2022/04/30 10:15:37;;;;;;;5.13;1.60;;;20.00;88.60;;;;;;5049090;28;20056;-63
2022/04/30 10:18:07;;;;;;;3.10;1.67;;;19.90;87.60;;;;;;5047918;28;20021;-64
2022/04/30 10:20:34;;;;;;;4.53;1.80;;;19.60;88.00;;;;;;5051595;28;20348;-62
2022/04/30 10:23:01;;;;;;;4.68;1.88;;;19.50;88.10;;;;;;5048958;28;20021;-64
2022/04/30 10:25:46;;;;;;;4.90;1.50;;;19.40;88.00;;;;;;5051638;28;20032;-64
2022/04/30 10:28:17;;;;;;;4.93;1.70;;;19.50;88.30;;;;;;5050033;28;20049;-63
2022/04/30 10:31:04;;;;;;;4.78;2.03;;;19.80;87.60;;;;;;5031640;28;20047;-65
2022/04/30 10:33:31;;;;;;;2.40;1.30;;;20.10;86.60;;;;;;5052737;28;20044;-67
2022/04/30 10:36:08;;;;;;;6.68;1.98;;;20.80;84.90;;;;;;5060681;28;20314;-61
2022/04/30 10:38:35;;;;;;;3.42;2.00;;;20.90;83.90;;;;;;5049311;28;20116;-64
2022/04/30 10:41:02;;;;;;;3.95;1.95;;;21.10;84.20;;;;;;5050863;28;20465;-65
2022/04/30 10:43:34;;;;;;;7.93;2.10;;;21.80;82.30;;;;;;5056626;28;20016;-62
2022/04/30 10:46:01;;;;;;;5.60;1.83;;;22.50;81.10;;;;;;5071610;28;20103;-64
2022/04/30 10:48:27;;;;;;;2.25;1.52;;;22.80;79.70;;;;;;5053356;28;20483;-64
2022/04/30 10:51:11;;;;;;;4.00;1.38;;;23.10;78.40;;;;;;5051465;28;20021;-66
2022/04/30 10:53:55;;;;;;;5.60;1.80;;;22.90;77.60;;;;;;5051078;28;20075;-63
2022/04/30 10:56:21;;;;;;;6.18;1.63;;;22.10;77.90;;;;;;5051307;28;20020;-62
2022/04/30 10:58:48;;;;;;;5.38;1.67;;;21.60;79.00;;;;;;5054031;28;20108;-61
2022/04/30 11:01:16;;;;;;;4.93;1.80;;;21.20;79.70;;;;;;5047157;28;20028;-62
2022/04/30 11:03:43;;;;;;;6.82;2.40;;;20.70;80.90;;;;;;5042490;28;20021;-66
2022/04/30 11:06:33;;;;;;;13.63;2.40;;;20.40;82.10;;;;;;5055031;28;20514;-62
2022/04/30 11:09:08;;;;;;;7.20;2.35;;;20.50;83.10;;;;;;5055630;28;20035;-66
2022/04/30 11:11:35;;;;;;;7.30;2.67;;;20.60;83.50;;;;;;5062131;28;20365;-64
2022/04/30 11:14:10;;;;;;;4.55;1.90;;;20.70;84.20;;;;;;5058347;28;20024;-62
2022/04/30 11:16:42;;;;;;;2.50;1.65;;;20.80;83.50;;;;;;5054554;28;20025;-64
2022/04/30 11:19:10;;;;;;;2.40;1.30;;;20.50;80.80;;;;;;5055204;28;20020;-63
2022/04/30 11:21:38;;;;;;;3.22;1.60;;;20.00;80.20;;;;;;5055521;28;20013;-66
2022/04/30 11:24:05;;;;;;;5.38;1.88;;;19.70;81.40;;;;;;5053200;28;20120;-63
2022/04/30 11:26:39;;;;;;;4.68;1.73;;;19.50;81.00;;;;;;5054755;28;20029;-65
2022/04/30 11:29:13;;;;;;;4.10;1.88;;;19.40;80.70;;;;;;5071367;28;20076;-62
2022/04/30 11:31:41;;;;;;;2.05;1.00;;;19.50;81.70;;;;;;5074563;28;20021;-62
2022/04/30 11:34:16;;;;;;;2.40;1.20;;;19.70;80.10;;;;;;5075204;28;20089;-62
2022/04/30 11:36:43;;;;;;;2.55;1.20;;;19.80;80.10;;;;;;5061202;28;20113;-63
2022/04/30 11:39:10;;;;;;;3.60;1.20;;;19.80;80.30;;;;;;5054575;28;20086;-66
2022/04/30 11:41:40;;;;;;;4.38;1.52;;;19.60;81.00;;;;;;5054088;28;20063;-63
2022/04/30 11:44:08;;;;;;;2.60;1.55;;;19.60;82.30;;;;;;5054145;28;20028;-64
2022/04/30 11:46:36;;;;;;;4.70;1.60;;;20.00;82.60;;;;;;5063745;28;20022;-61
2022/04/30 11:49:10;;;;;;;2.85;1.55;;;20.60;81.00;;;;;;5054449;28;20022;-62
2022/04/30 11:51:37;;;;;;;3.10;1.63;;;20.90;81.90;;;;;;5073278;28;20029;-62
2022/04/30 11:54:06;;;;;;;2.30;1.17;;;20.80;83.70;;;;;;5067298;28;20021;-62
2022/04/30 11:56:32;;;;;;;5.90;1.70;;;20.70;86.10;;;;;;5051626;28;20463;-62
2022/04/30 11:58:58;;;;;;;5.90;1.70;;;20.60;85.50;;;;;;5050932;28;20063;-62
2022/04/30 12:01:30;;;;;;;5.80;1.85;;;20.40;84.70;;;;;;5053216;28;20013;-64
2022/04/30 12:03:59;;;;;;;3.88;1.60;;;20.20;83.90;;;;;;5073819;28;20024;-62
2022/04/30 12:06:28;;;;;;;4.93;1.73;;;20.00;84.40;;;;;;5069416;28;20039;-62
2022/04/30 12:08:54;;;;;;;4.45;1.63;;;19.80;85.00;;;;;;5053823;28;20028;-61
2022/04/30 12:11:19;;;;;;;5.38;1.67;;;19.60;84.80;;;;;;5054429;28;20028;-65
2022/04/30 12:14:02;;;;;;;6.32;1.70;;;19.40;84.30;;;;;;5065280;28;20079;-63
2022/04/30 12:16:39;;;;;;;6.30;1.95;;;19.50;84.60;;;;;;5071596;28;20039;-63
2022/04/30 12:24:43;;;;;;;3.85;1.70;;;20.40;81.90;;;;;;5053585;28;20139;-62
2022/04/30 12:27:10;;;;;;;6.40;2.00;;;20.40;81.30;;;;;;5054183;28;20087;-63
2022/04/30 12:29:37;;;;;;;6.60;2.03;;;20.50;82.40;;;;;;5054005;28;20510;-62
2022/04/30 12:32:07;;;;;;;5.13;2.00;;;20.60;83.60;;;;;;5058971;28;20047;-63
2022/04/30 12:34:40;;;;;;;3.95;2.08;;;20.60;83.40;;;;;;5073751;28;20365;-64
2022/04/30 12:37:07;;;;;;;8.73;2.05;;;20.60;82.60;;;;;;5055283;28;20482;-62
2022/04/30 12:39:32;;;;;;;5.90;1.90;;;20.60;82.20;;;;;;5060275;28;20461;-62
2022/04/30 12:41:58;;;;;;;5.65;2.40;;;20.50;82.40;;;;;;5073839;28;20025;-63
2022/04/30 12:44:25;;;;;;;6.10;2.00;;;20.30;82.90;;;;;;5065066;28;20115;-63
2022/04/30 12:46:51;;;;;;;7.72;2.47;;;20.10;82.90;;;;;;5052621;28;20096;-61
2022/04/30 12:49:20;;;;;;;5.57;2.45;;;19.90;83.20;;;;;;5053633;28;20473;-62
2022/04/30 12:51:50;;;;;;;4.55;2.10;;;19.80;83.40;;;;;;5053353;28;20021;-62
2022/04/30 12:54:16;;;;;;;5.47;2.20;;;19.80;82.80;;;;;;5053594;28;20060;-64
2022/04/30 12:56:46;;;;;;;8.30;2.40;;;19.90;82.40;;;;;;5062230;28;20522;-67
2022/04/30 12:59:13;;;;;;;5.38;2.00;;;20.00;82.70;;;;;;5072650;28;20027;-63
2022/04/30 13:01:40;;;;;;;6.30;2.40;;;20.10;81.50;;;;;;5073105;28;20021;-62
2022/04/30 13:04:06;;;;;;;6.15;2.35;;;20.20;82.00;;;;;;5057501;28;20175;-61
2022/04/30 13:06:32;;;;;;;6.53;1.85;;;20.40;81.50;;;;;;5058519;28;20518;-62
2022/04/30 13:14:27;;;;;;;7.78;2.30;;;20.80;80.20;;;;;;5053042;28;20770;-62
2022/04/30 13:16:53;;;;;;;7.05;2.70;;;21.00;79.60;;;;;;5052752;28;20068;-65
2022/04/30 13:19:19;;;;;;;4.60;2.17;;;21.20;79.50;;;;;;5051413;28;20024;-65
2022/04/30 13:21:47;;;;;;;4.68;2.20;;;21.40;79.20;;;;;;5050693;28;20365;-64
2022/04/30 13:24:16;;;;;;;5.18;2.10;;;21.60;78.60;;;;;;5053138;28;20024;-64
2022/04/30 13:26:43;;;;;;;5.13;1.90;;;21.80;77.40;;;;;;5052080;28;20045;-68
2022/04/30 13:29:10;;;;;;;4.15;1.85;;;21.80;76.20;;;;;;5052638;28;20037;-66
2022/04/30 13:31:37;;;;;;;7.28;2.70;;;21.60;77.10;;;;;;5052471;28;20104;-64
2022/04/30 13:34:03;;;;;;;6.38;2.33;;;21.50;77.50;;;;;;5052197;28;20350;-65